Tosquita, Argentina
Current Conditions -  °F | °C
As of 6:00 PM on Wednesday 26 Nov 2014 (Local Time) from SAOC Reporting Station
Clear Clear  
Wind Chill: 82°   Ceiling: Unl
Heat Index: 82°   Visibility: 6mi
Dew Point: 46°   Wind: 14mph
Humidity: 28%   Direction: 50°NE
Pressure: 29.85"   Gusts: NA
Location:  33.83°S, 64.46°W
Report Text: SAOC 262100Z 05012KT CAVOK 28/08 Q1011
Loading
Personal Weather Stations






























Interactive Weather Map New forecast layout! Learn more

10-Day Weather Forecast

Advertisements
Track Severe Weather on mobile